Time;durP1;ratioP1;P1;durP2;ratioP2;P2;SDS_P1;SDS_P2;PMS_P1;PMS_P2;Temp;Humidity;BMP_temperature;BMP_pressure;BME280_temperature;BME280_humidity;BME280_pressure;Samples;Min_cycle;Max_cycle;Signal;HPM_P1;HPM_P2
2021/11/04 00:00:07;;;;;;;1.98;1.35;;;22.10;53.00;;;;;;5268655;27;20816;-51
2021/11/04 00:02:44;;;;;;;2.13;1.38;;;22.10;53.00;;;;;;5269521;27;20047;-54
2021/11/04 00:05:17;;;;;;;2.17;1.67;;;22.00;52.90;;;;;;5269266;27;20055;-51
2021/11/04 00:07:51;;;;;;;1.48;1.20;;;22.00;52.90;;;;;;5272447;27;20043;-49
2021/11/04 00:10:24;;;;;;;2.22;1.70;;;22.00;52.80;;;;;;5266871;27;20047;-58
2021/11/04 00:12:57;;;;;;;3.95;1.88;;;22.00;52.90;;;;;;5269914;27;20074;-51
2021/11/04 00:15:29;;;;;;;1.48;1.10;;;22.00;52.80;;;;;;5271169;27;20035;-52
2021/11/04 00:18:02;;;;;;;2.22;1.50;;;22.00;53.00;;;;;;5246640;27;20055;-52
2021/11/04 00:20:35;;;;;;;1.25;1.15;;;22.00;53.00;;;;;;5246001;27;20050;-52
2021/11/04 00:23:07;;;;;;;2.47;1.35;;;22.00;53.00;;;;;;5257663;27;20043;-51
2021/11/04 00:25:39;;;;;;;1.95;1.30;;;22.00;52.90;;;;;;5248316;27;20056;-52
2021/11/04 00:28:12;;;;;;;1.98;1.45;;;22.00;53.00;;;;;;5255634;27;20480;-59
2021/11/04 00:30:45;;;;;;;2.45;1.20;;;22.00;52.90;;;;;;5257535;28;20051;-57
2021/11/04 00:33:18;;;;;;;3.53;1.40;;;22.00;52.80;;;;;;5281603;27;20066;-52
2021/11/04 00:35:50;;;;;;;2.88;1.20;;;21.90;52.70;;;;;;5256823;27;20039;-54
2021/11/04 00:38:23;;;;;;;1.73;1.50;;;21.90;53.00;;;;;;5264620;27;20062;-52
2021/11/04 00:40:56;;;;;;;3.53;1.85;;;21.90;52.90;;;;;;5260870;28;20511;-55
2021/11/04 00:43:28;;;;;;;2.13;1.20;;;21.90;53.00;;;;;;5262452;28;20044;-49
2021/11/04 00:46:01;;;;;;;2.43;1.30;;;21.90;52.80;;;;;;5255959;28;20047;-55
2021/11/04 00:48:33;;;;;;;1.77;1.40;;;21.90;52.90;;;;;;5253826;28;20290;-53
2021/11/04 00:51:06;;;;;;;2.60;1.15;;;21.90;52.90;;;;;;5254008;28;20043;-49
2021/11/04 00:53:39;;;;;;;4.35;1.40;;;21.90;52.80;;;;;;5265845;28;20051;-49
2021/11/04 00:56:12;;;;;;;1.73;1.33;;;21.90;52.70;;;;;;5252337;28;20047;-58
2021/11/04 00:58:44;;;;;;;1.98;1.10;;;21.90;52.70;;;;;;5255855;28;20055;-49
2021/11/04 01:01:19;;;;;;;2.50;1.50;;;21.90;52.70;;;;;;5237374;28;20414;-54
2021/11/04 01:03:52;;;;;;;3.17;1.23;;;21.90;52.70;;;;;;5257073;28;20487;-54
2021/11/04 01:06:24;;;;;;;;;;;21.90;52.80;;;;;;5231318;28;20494;-56
2021/11/04 01:08:57;;;;;;;2.83;1.10;;;21.90;52.60;;;;;;5252083;28;19934;-54
2021/11/04 01:11:32;;;;;;;1.25;1.10;;;21.90;52.90;;;;;;5253584;28;20059;-56
2021/11/04 01:14:04;;;;;;;0.93;0.90;;;21.80;52.80;;;;;;5252494;28;20052;-53
2021/11/04 01:16:38;;;;;;;3.20;0.90;;;21.80;52.80;;;;;;5251174;28;20500;-53
2021/11/04 01:19:12;;;;;;;;;;;21.90;52.80;;;;;;5243678;28;20039;-50
2021/11/04 01:21:44;;;;;;;1.83;1.13;;;21.80;52.80;;;;;;5252897;28;19928;-57
2021/11/04 01:24:17;;;;;;;1.80;1.08;;;21.80;52.80;;;;;;5253612;28;20044;-52
2021/11/04 01:26:49;;;;;;;1.67;0.65;;;21.80;52.80;;;;;;5270102;28;20437;-50
2021/11/04 01:29:22;;;;;;;2.13;0.98;;;21.80;52.80;;;;;;5249506;27;20039;-55
2021/11/04 01:31:55;;;;;;;1.83;0.80;;;21.80;52.70;;;;;;5273113;27;20652;-58
2021/11/04 01:34:27;;;;;;;0.90;0.88;;;21.80;52.80;;;;;;5274970;27;20046;-58
2021/11/04 01:37:00;;;;;;;1.73;0.75;;;21.80;52.70;;;;;;5280912;27;20039;-49
2021/11/04 01:39:32;;;;;;;1.42;0.93;;;21.80;52.70;;;;;;5276058;27;20356;-50
2021/11/04 01:42:05;;;;;;;1.40;0.90;;;21.80;52.60;;;;;;5269368;27;20522;-55
2021/11/04 01:44:37;;;;;;;1.77;1.03;;;21.80;52.60;;;;;;5278695;27;20498;-54
2021/11/04 01:47:11;;;;;;;0.80;0.63;;;21.80;52.60;;;;;;5277309;27;20304;-56
2021/11/04 01:49:43;;;;;;;;;;;21.80;52.70;;;;;;5273514;27;20043;-54
2021/11/04 01:52:15;;;;;;;1.80;0.98;;;21.70;52.70;;;;;;5276059;27;19923;-51
2021/11/04 01:54:48;;;;;;;1.02;0.75;;;21.80;52.80;;;;;;5274011;27;20043;-59
2021/11/04 01:57:20;;;;;;;0.87;0.70;;;21.80;52.90;;;;;;5268359;27;20419;-53
2021/11/04 01:59:53;;;;;;;0.98;0.75;;;21.80;52.80;;;;;;5277821;27;20047;-55
2021/11/04 02:02:30;;;;;;;1.00;0.82;;;21.80;52.70;;;;;;5260562;27;22108;-49
2021/11/04 02:05:05;;;;;;;1.65;0.80;;;21.80;52.80;;;;;;5246955;27;20201;-59
2021/11/04 02:07:53;;;;;;;0.70;0.65;;;21.80;52.70;;;;;;5260515;27;20457;-54
2021/11/04 02:10:34;;;;;;;1.42;0.88;;;21.70;52.60;;;;;;5289401;22;20051;-57
2021/11/04 02:13:22;;;;;;;2.25;0.73;;;21.80;52.80;;;;;;5249055;28;20040;-55
2021/11/04 02:15:58;;;;;;;1.38;0.88;;;21.80;52.80;;;;;;5233391;28;20055;-51
2021/11/04 02:18:33;;;;;;;1.80;0.98;;;21.80;52.80;;;;;;5242844;27;20336;-54
2021/11/04 02:21:09;;;;;;;2.08;0.80;;;21.80;52.80;;;;;;5233598;28;20054;-51
2021/11/04 02:23:56;;;;;;;1.58;0.90;;;21.80;52.70;;;;;;5246961;27;20047;-57
2021/11/04 02:26:31;;;;;;;1.80;0.82;;;21.80;52.70;;;;;;5247582;28;20039;-60
2021/11/04 02:29:06;;;;;;;6.57;0.95;;;21.80;52.70;;;;;;5246266;28;20032;-52
2021/11/04 02:31:38;;;;;;;2.08;0.70;;;21.80;52.80;;;;;;5245189;28;20047;-55
2021/11/04 02:34:11;;;;;;;2.23;0.87;;;21.70;52.70;;;;;;5246668;27;20484;-55
2021/11/04 02:36:45;;;;;;;1.02;0.75;;;21.80;52.70;;;;;;5249508;28;20531;-55
2021/11/04 02:39:18;;;;;;;1.65;0.70;;;21.70;52.60;;;;;;5246760;28;20051;-55
2021/11/04 02:41:51;;;;;;;2.88;0.82;;;21.70;52.50;;;;;;5244079;28;20062;-60
2021/11/04 02:44:26;;;;;;;4.03;1.40;;;21.80;52.50;;;;;;5244736;28;20411;-52
2021/11/04 02:46:58;;;;;;;2.25;1.05;;;21.70;52.40;;;;;;5250332;28;20054;-58
2021/11/04 02:49:31;;;;;;;2.70;0.80;;;21.70;52.50;;;;;;5243658;28;20056;-53
2021/11/04 02:52:04;;;;;;;1.63;0.80;;;21.70;52.30;;;;;;5249034;28;20408;-52
2021/11/04 02:54:37;;;;;;;1.92;1.02;;;21.70;52.40;;;;;;5225628;28;20342;-55
2021/11/04 02:57:09;;;;;;;4.68;0.98;;;21.70;52.30;;;;;;5229942;28;20381;-55
2021/11/04 02:59:42;;;;;;;2.88;1.00;;;21.70;52.30;;;;;;5229285;28;20048;-53
2021/11/04 03:02:15;;;;;;;4.15;0.98;;;21.70;52.20;;;;;;5249737;28;20345;-52
2021/11/04 03:04:47;;;;;;;1.13;0.60;;;21.70;52.20;;;;;;5250863;28;20039;-57
2021/11/04 03:07:19;;;;;;;3.13;0.80;;;21.70;52.30;;;;;;5250522;28;20480;-52
2021/11/04 03:09:52;;;;;;;5.43;0.90;;;21.70;52.10;;;;;;5241593;28;20047;-53
2021/11/04 03:12:24;;;;;;;3.67;0.93;;;21.70;52.00;;;;;;5243200;28;20048;-56
2021/11/04 03:14:57;;;;;;;3.47;0.80;;;21.70;51.90;;;;;;5241294;28;20044;-53
2021/11/04 03:17:30;;;;;;;2.00;0.73;;;21.70;51.90;;;;;;5245200;28;20054;-58
2021/11/04 03:20:03;;;;;;;1.50;0.80;;;21.70;51.90;;;;;;5245739;28;20047;-51
2021/11/04 03:22:37;;;;;;;2.00;0.65;;;21.70;51.90;;;;;;5249828;28;20048;-57
2021/11/04 03:25:14;;;;;;;2.17;0.73;;;21.70;51.90;;;;;;5247563;28;20047;-57
2021/11/04 03:27:50;;;;;;;2.72;0.60;;;21.70;51.80;;;;;;5225646;28;20107;-53
2021/11/04 03:30:25;;;;;;;3.17;0.77;;;21.70;51.80;;;;;;5251029;28;20396;-57
2021/11/04 03:32:59;;;;;;;1.60;0.60;;;21.70;51.80;;;;;;5247302;28;20555;-55
2021/11/04 03:35:36;;;;;;;0.68;0.40;;;21.70;51.80;;;;;;5248213;28;21586;-50
2021/11/04 03:38:12;;;;;;;2.15;0.70;;;21.70;51.70;;;;;;5248360;28;20114;-60
2021/11/04 03:40:44;;;;;;;0.63;0.50;;;21.70;51.60;;;;;;5243592;28;20419;-58
2021/11/04 03:43:17;;;;;;;0.50;0.30;;;21.70;51.70;;;;;;5227139;28;20052;-54
2021/11/04 03:45:50;;;;;;;0.73;0.50;;;21.70;51.80;;;;;;5240415;28;21254;-60
2021/11/04 03:48:23;;;;;;;2.85;0.70;;;21.70;51.80;;;;;;5233826;28;20483;-54
2021/11/04 03:50:57;;;;;;;1.42;0.70;;;21.70;51.80;;;;;;5242003;27;20055;-51
2021/11/04 03:53:29;;;;;;;1.10;0.80;;;21.60;51.70;;;;;;5216148;28;20058;-57
2021/11/04 03:56:03;;;;;;;0.90;0.65;;;21.60;51.70;;;;;;5236733;28;20056;-57
2021/11/04 03:58:39;;;;;;;2.33;0.70;;;21.60;51.80;;;;;;5239580;28;20062;-49
2021/11/04 04:01:12;;;;;;;1.08;0.50;;;21.60;51.70;;;;;;5235829;28;20058;-53
2021/11/04 04:03:45;;;;;;;2.77;0.80;;;21.60;51.60;;;;;;5242406;28;20568;-57
2021/11/04 04:06:22;;;;;;;1.02;0.80;;;21.60;51.60;;;;;;5225609;28;20467;-52
2021/11/04 04:08:55;;;;;;;1.13;0.63;;;21.60;51.60;;;;;;5253007;28;20047;-51
2021/11/04 04:11:27;;;;;;;0.65;0.57;;;21.60;51.60;;;;;;5252824;27;20048;-55
2021/11/04 04:14:00;;;;;;;0.40;0.40;;;21.60;51.50;;;;;;5248601;28;20480;-50
2021/11/04 04:16:32;;;;;;;1.42;0.50;;;21.60;51.40;;;;;;5244826;28;20048;-47
2021/11/04 04:19:05;;;;;;;0.43;0.35;;;21.60;51.50;;;;;;5235132;27;20048;-54
2021/11/04 04:21:38;;;;;;;5.70;0.73;;;21.60;52.20;;;;;;5221696;28;20058;-57
2021/11/04 04:24:10;;;;;;;2.40;0.73;;;21.60;51.80;;;;;;5236994;28;20058;-55
2021/11/04 04:26:43;;;;;;;3.83;0.90;;;21.60;51.90;;;;;;5211230;28;20332;-60
2021/11/04 04:29:15;;;;;;;6.82;0.70;;;21.60;52.00;;;;;;5238628;28;20040;-57
2021/11/04 04:31:47;;;;;;;2.15;0.63;;;21.70;52.20;;;;;;5235778;28;20040;-58
2021/11/04 04:34:20;;;;;;;1.08;0.52;;;21.70;52.20;;;;;;5214983;28;20059;-58
2021/11/04 04:36:52;;;;;;;0.95;0.47;;;21.70;52.30;;;;;;5233325;28;20044;-54
2021/11/04 04:39:27;;;;;;;1.67;0.90;;;21.70;52.40;;;;;;5246312;28;20515;-55
2021/11/04 04:42:00;;;;;;;0.82;0.60;;;21.70;52.50;;;;;;5249329;28;20051;-51
2021/11/04 04:44:34;;;;;;;4.32;0.95;;;21.70;52.60;;;;;;5238314;28;20044;-55
2021/11/04 04:47:06;;;;;;;2.58;0.60;;;21.70;52.60;;;;;;5248472;28;20047;-56
2021/11/04 04:49:38;;;;;;;3.55;0.73;;;21.70;52.70;;;;;;5229951;28;20465;-55
2021/11/04 04:52:11;;;;;;;1.30;0.50;;;21.70;52.70;;;;;;5244904;28;20403;-58
2021/11/04 04:54:44;;;;;;;1.60;0.68;;;21.70;52.80;;;;;;5250157;28;20063;-54
2021/11/04 04:57:22;;;;;;;2.05;0.82;;;21.70;52.80;;;;;;5240721;28;20989;-57
2021/11/04 04:59:57;;;;;;;3.70;0.70;;;21.70;52.90;;;;;;5236067;28;20492;-56
2021/11/04 05:02:29;;;;;;;1.45;0.40;;;21.70;53.00;;;;;;5237263;28;20039;-54
2021/11/04 05:05:02;;;;;;;4.70;0.77;;;21.70;53.00;;;;;;5246899;28;20059;-54
2021/11/04 05:07:35;;;;;;;3.70;0.77;;;21.70;53.10;;;;;;5242348;28;20415;-59
2021/11/04 05:10:09;;;;;;;2.10;0.60;;;21.80;53.20;;;;;;5226538;28;20063;-50
2021/11/04 05:12:42;;;;;;;;;;;21.70;53.20;;;;;;5240667;28;20052;-54
2021/11/04 05:15:15;;;;;;;2.22;0.80;;;21.70;53.30;;;;;;5252488;27;20299;-57
2021/11/04 05:22:31;;;;;;;3.33;0.80;;;21.70;53.40;;;;;;5239611;27;20498;-53
2021/11/04 05:25:04;;;;;;;10.80;0.90;;;21.70;53.50;;;;;;5232705;28;20908;-58
2021/11/04 05:27:37;;;;;;;3.92;0.82;;;21.70;54.20;;;;;;5242593;28;21404;-55
2021/11/04 05:30:10;;;;;;;3.67;0.75;;;21.70;53.60;;;;;;5245165;28;20051;-57
2021/11/04 05:32:43;;;;;;;3.38;0.90;;;21.70;53.60;;;;;;5228210;28;20113;-57
2021/11/04 05:35:20;;;;;;;3.53;1.10;;;21.70;53.60;;;;;;5234468;28;20044;-58
2021/11/04 05:37:52;;;;;;;7.38;1.23;;;21.80;53.80;;;;;;5246706;28;20129;-55
2021/11/04 05:40:25;;;;;;;10.30;0.80;;;21.80;53.70;;;;;;5246836;28;20055;-58
2021/11/04 05:42:57;;;;;;;6.22;0.98;;;21.80;53.70;;;;;;5234897;28;20107;-58
2021/11/04 05:45:29;;;;;;;3.28;0.68;;;21.80;53.70;;;;;;5216964;28;20054;-53
2021/11/04 05:48:02;;;;;;;4.22;0.80;;;21.90;53.70;;;;;;5240081;28;20035;-58
2021/11/04 05:50:35;;;;;;;2.45;0.68;;;21.90;53.60;;;;;;5242410;28;20442;-55
2021/11/04 05:53:07;;;;;;;5.20;0.95;;;21.90;53.70;;;;;;5247085;28;20044;-49
2021/11/04 05:55:40;;;;;;;3.90;0.77;;;21.90;53.60;;;;;;5223725;28;20058;-54
2021/11/04 05:58:12;;;;;;;4.57;0.75;;;21.90;53.60;;;;;;5232895;28;20047;-53
2021/11/04 06:00:45;;;;;;;2.03;0.90;;;22.00;53.60;;;;;;5234142;28;20056;-56
2021/11/04 06:03:18;;;;;;;2.97;0.98;;;22.00;53.60;;;;;;5216399;28;20321;-58
2021/11/04 06:05:50;;;;;;;1.83;0.93;;;22.00;53.60;;;;;;5238096;27;20039;-55
2021/11/04 06:08:23;;;;;;;2.33;0.80;;;22.00;53.60;;;;;;5212027;28;20044;-50
2021/11/04 06:10:55;;;;;;;2.47;0.73;;;22.00;53.60;;;;;;5240428;28;20074;-58
2021/11/04 06:13:27;;;;;;;1.20;0.95;;;22.00;53.60;;;;;;5224037;28;20044;-58
2021/11/04 06:16:00;;;;;;;2.67;0.77;;;22.00;53.60;;;;;;5226163;28;20066;-57
2021/11/04 06:18:32;;;;;;;1.75;0.80;;;22.10;53.70;;;;;;5228870;28;20059;-50
2021/11/04 06:21:04;;;;;;;4.00;0.80;;;22.10;53.60;;;;;;5238942;28;20052;-57
2021/11/04 06:23:37;;;;;;;7.22;1.33;;;22.10;53.70;;;;;;5242464;28;20527;-55
2021/11/04 06:26:09;;;;;;;3.13;1.02;;;22.10;53.70;;;;;;5220900;28;20261;-58
2021/11/04 06:28:43;;;;;;;6.97;0.90;;;22.10;53.70;;;;;;5227466;28;20145;-53
2021/11/04 06:31:15;;;;;;;5.53;0.95;;;22.10;53.80;;;;;;5213737;28;20047;-54
2021/11/04 06:33:48;;;;;;;6.70;1.05;;;22.10;53.80;;;;;;5226102;28;20043;-55
2021/11/04 06:36:20;;;;;;;6.47;1.10;;;22.20;53.90;;;;;;5237890;28;20047;-52
2021/11/04 06:38:53;;;;;;;29.33;2.53;;;22.20;54.00;;;;;;5218840;28;22932;-54
2021/11/04 06:41:25;;;;;;;3.53;0.80;;;22.20;54.00;;;;;;5213130;28;20051;-60
2021/11/04 06:43:58;;;;;;;3.60;0.93;;;22.20;53.90;;;;;;5237485;28;20047;-58
2021/11/04 06:46:32;;;;;;;2.28;0.70;;;22.20;54.00;;;;;;5215457;28;20047;-59
2021/11/04 06:49:09;;;;;;;4.80;0.77;;;22.20;53.90;;;;;;5222807;28;20492;-54
2021/11/04 06:51:45;;;;;;;5.43;0.98;;;22.20;53.90;;;;;;5231119;28;20453;-53
2021/11/04 06:54:18;;;;;;;3.58;1.00;;;22.20;53.90;;;;;;5230971;28;22715;-51
2021/11/04 06:56:51;;;;;;;9.00;1.37;;;22.20;53.90;;;;;;5234917;28;20050;-56
2021/11/04 06:59:26;;;;;;;7.72;1.55;;;22.20;53.90;;;;;;5207891;28;20782;-56
2021/11/04 07:02:00;;;;;;;3.92;0.90;;;22.20;53.90;;;;;;5236712;28;20062;-57
2021/11/04 07:04:39;;;;;;;4.82;0.95;;;22.20;54.00;;;;;;5229228;28;20047;-56
2021/11/04 07:07:13;;;;;;;3.78;1.15;;;22.20;54.00;;;;;;5236242;28;20054;-52
2021/11/04 07:09:46;;;;;;;9.00;1.20;;;22.20;54.00;;;;;;5230664;28;20048;-59
2021/11/04 07:12:19;;;;;;;7.18;0.85;;;22.20;54.00;;;;;;5234868;28;20985;-58
2021/11/04 07:14:51;;;;;;;7.82;1.20;;;22.20;54.10;;;;;;5234953;28;20047;-54
2021/11/04 07:17:24;;;;;;;5.38;0.68;;;22.20;54.10;;;;;;5233183;28;20056;-55
2021/11/04 07:19:56;;;;;;;3.03;1.00;;;22.30;54.20;;;;;;5236319;28;20479;-55
2021/11/04 07:22:31;;;;;;;10.45;1.17;;;22.30;54.20;;;;;;5218472;28;20056;-59
2021/11/04 07:25:07;;;;;;;2.28;0.70;;;22.30;54.20;;;;;;5236769;28;20062;-56
2021/11/04 07:27:39;;;;;;;5.53;1.00;;;22.30;54.30;;;;;;5225436;28;21006;-51
2021/11/04 07:30:14;;;;;;;3.10;0.90;;;22.30;54.30;;;;;;5231502;28;20062;-52
2021/11/04 07:32:53;;;;;;;5.97;1.33;;;22.30;54.30;;;;;;5239440;28;20086;-59
2021/11/04 07:35:37;;;;;;;6.80;1.00;;;22.30;54.40;;;;;;5234607;28;20043;-54
2021/11/04 07:38:13;;;;;;;;;;;22.30;54.40;;;;;;5234722;28;20074;-59
2021/11/04 07:40:46;;;;;;;3.67;1.00;;;22.30;54.40;;;;;;5236524;28;19928;-53
2021/11/04 07:43:23;;;;;;;4.05;0.85;;;22.30;54.40;;;;;;5235753;28;20047;-56
2021/11/04 07:45:55;;;;;;;5.57;1.20;;;22.30;54.40;;;;;;5238053;28;20060;-53
2021/11/04 07:48:28;;;;;;;4.05;1.20;;;22.30;54.40;;;;;;5235184;28;21619;-60
2021/11/04 07:51:01;;;;;;;3.35;0.90;;;22.30;54.40;;;;;;5239445;28;20044;-52
2021/11/04 07:53:33;;;;;;;10.00;1.20;;;22.30;54.50;;;;;;5231402;28;20044;-53
2021/11/04 07:56:08;;;;;;;5.20;1.02;;;22.30;54.50;;;;;;5239398;28;20039;-53
2021/11/04 07:58:41;;;;;;;3.53;0.80;;;22.30;54.60;;;;;;5240068;28;20610;-58
2021/11/04 08:01:13;;;;;;;8.70;1.10;;;22.30;54.60;;;;;;5234528;28;20044;-58
2021/11/04 08:03:50;;;;;;;3.40;1.00;;;22.40;54.60;;;;;;5237467;28;20052;-55
2021/11/04 08:06:22;;;;;;;2.70;0.80;;;22.40;54.60;;;;;;5238940;28;20048;-57
2021/11/04 08:08:54;;;;;;;4.90;1.00;;;22.40;54.60;;;;;;5244895;28;20645;-56
2021/11/04 08:11:29;;;;;;;7.25;1.05;;;22.40;54.60;;;;;;5233336;28;20048;-56
2021/11/04 08:14:02;;;;;;;9.18;1.30;;;22.40;54.70;;;;;;5215254;28;20395;-57
2021/11/04 08:16:34;;;;;;;5.30;1.08;;;22.40;54.70;;;;;;5231119;28;20060;-59
2021/11/04 08:19:07;;;;;;;9.52;1.10;;;22.40;54.70;;;;;;5238408;28;20048;-57
2021/11/04 08:21:40;;;;;;;8.30;1.30;;;22.40;54.80;;;;;;5233106;28;20048;-60
2021/11/04 08:24:12;;;;;;;6.43;1.00;;;22.40;54.70;;;;;;5226302;28;20507;-53
2021/11/04 08:26:45;;;;;;;8.57;1.00;;;22.40;54.70;;;;;;5229136;27;20082;-58
2021/11/04 08:29:17;;;;;;;7.93;0.95;;;22.40;54.80;;;;;;5230280;28;20074;-57
2021/11/04 08:31:50;;;;;;;3.30;0.90;;;22.40;54.70;;;;;;5232103;28;20133;-52
2021/11/04 08:34:22;;;;;;;4.40;1.20;;;22.40;54.80;;;;;;5221982;28;20050;-56
2021/11/04 08:36:55;;;;;;;7.25;1.30;;;22.40;54.80;;;;;;5216731;28;20052;-57
2021/11/04 08:39:27;;;;;;;14.95;1.33;;;22.40;54.80;;;;;;5233451;28;20303;-56
2021/11/04 08:42:01;;;;;;;5.45;1.10;;;22.40;54.80;;;;;;5222854;28;20149;-52
2021/11/04 08:44:34;;;;;;;9.32;1.27;;;22.40;54.80;;;;;;5226312;28;20054;-60
2021/11/04 08:47:08;;;;;;;8.45;1.52;;;22.40;54.80;;;;;;5226511;28;20048;-53
2021/11/04 08:49:41;;;;;;;7.72;1.40;;;22.40;54.80;;;;;;5230883;28;20409;-58
2021/11/04 08:52:14;;;;;;;8.07;1.40;;;22.40;54.90;;;;;;5229747;28;20044;-51
2021/11/04 08:54:46;;;;;;;9.48;1.02;;;22.50;55.30;;;;;;5233580;28;20422;-53
2021/11/04 08:57:19;;;;;;;8.77;1.20;;;22.50;55.20;;;;;;5225288;28;20052;-57
2021/11/04 08:59:52;;;;;;;10.85;1.98;;;22.50;55.20;;;;;;5223400;28;20070;-51
2021/11/04 09:02:25;;;;;;;5.70;1.02;;;22.40;55.10;;;;;;5232232;28;20067;-56
2021/11/04 09:05:01;;;;;;;13.20;2.42;;;22.50;55.00;;;;;;5229314;28;20050;-56
2021/11/04 09:07:34;;;;;;;6.50;1.35;;;22.50;54.80;;;;;;5203647;28;20051;-58
2021/11/04 09:10:09;;;;;;;9.05;1.20;;;22.40;54.70;;;;;;5238001;28;20048;-51
2021/11/04 09:12:42;;;;;;;8.05;1.00;;;22.40;54.50;;;;;;5233819;28;20052;-52
2021/11/04 09:15:15;;;;;;;4.95;1.20;;;22.50;54.50;;;;;;5223765;28;21832;-60
2021/11/04 09:17:48;;;;;;;7.78;1.20;;;22.40;54.40;;;;;;5231325;28;20051;-55
2021/11/04 09:20:21;;;;;;;7.90;1.02;;;22.40;54.20;;;;;;5234535;28;20055;-58
2021/11/04 09:22:54;;;;;;;6.32;0.98;;;22.50;54.20;;;;;;5228493;28;20646;-57
2021/11/04 09:25:27;;;;;;;4.45;1.60;;;22.40;54.10;;;;;;5243640;28;20040;-50
2021/11/04 09:27:59;;;;;;;2.85;0.73;;;22.50;54.00;;;;;;5222184;28;20851;-56
2021/11/04 09:30:32;;;;;;;6.63;0.80;;;22.50;54.00;;;;;;5251176;28;20051;-56
2021/11/04 09:33:04;;;;;;;4.25;1.00;;;22.50;54.00;;;;;;5232652;28;20307;-57
2021/11/04 09:35:37;;;;;;;5.55;1.00;;;22.50;53.90;;;;;;5228411;28;21746;-50
2021/11/04 09:38:10;;;;;;;3.90;1.27;;;22.50;53.80;;;;;;5229193;28;20531;-51
2021/11/04 09:40:43;;;;;;;5.10;0.73;;;22.50;53.80;;;;;;5229281;28;20067;-52
2021/11/04 09:43:15;;;;;;;8.60;0.75;;;22.50;53.70;;;;;;5222992;28;20545;-53
2021/11/04 09:45:48;;;;;;;12.68;1.25;;;22.50;53.70;;;;;;5218373;28;20040;-56
2021/11/04 09:48:20;;;;;;;17.55;1.08;;;22.60;53.90;;;;;;5226774;28;20054;-55
2021/11/04 09:50:53;;;;;;;7.03;1.08;;;22.50;54.00;;;;;;5204241;28;20462;-56
2021/11/04 09:53:25;;;;;;;3.42;0.82;;;22.60;54.10;;;;;;5210459;28;20044;-56
2021/11/04 09:56:03;;;;;;;11.85;1.10;;;22.60;54.10;;;;;;5237087;28;20062;-52
2021/11/04 09:58:35;;;;;;;4.47;0.90;;;22.60;54.00;;;;;;5238528;28;20396;-59
2021/11/04 10:01:29;;;;;;;12.80;0.95;;;22.60;53.90;;;;;;5225218;28;20048;-55
2021/11/04 10:04:03;;;;;;;6.63;0.90;;;22.60;53.80;;;;;;5239796;27;20448;-59
2021/11/04 10:06:37;;;;;;;4.90;0.90;;;22.60;53.90;;;;;;5220597;28;20052;-51
2021/11/04 10:09:10;;;;;;;;;;;22.60;53.80;;;;;;5239345;28;20415;-52
2021/11/04 10:11:46;;;;;;;8.83;1.33;;;22.60;54.00;;;;;;5219223;28;20002;-53
2021/11/04 10:14:18;;;;;;;4.18;1.05;;;22.60;54.10;;;;;;5221869;28;20109;-52
2021/11/04 10:16:51;;;;;;;3.13;0.90;;;22.70;54.10;;;;;;5224122;28;20040;-60
2021/11/04 10:19:24;;;;;;;8.50;1.00;;;22.70;54.90;;;;;;5225416;28;20048;-52
2021/11/04 10:21:56;;;;;;;7.32;1.05;;;22.70;54.30;;;;;;5241272;28;20058;-48
2021/11/04 10:24:29;;;;;;;5.68;1.00;;;22.70;54.30;;;;;;5241408;28;20211;-52
2021/11/04 10:27:01;;;;;;;4.05;0.80;;;22.70;54.20;;;;;;5220336;28;20047;-54
2021/11/04 10:29:37;;;;;;;2.80;0.90;;;22.70;54.20;;;;;;5234274;28;20048;-60
2021/11/04 10:32:10;;;;;;;8.55;0.88;;;22.70;54.20;;;;;;5228587;28;20531;-48
2021/11/04 10:34:42;;;;;;;5.85;0.93;;;22.70;54.10;;;;;;5218030;28;20046;-59
2021/11/04 10:37:21;;;;;;;7.78;0.80;;;22.70;54.30;;;;;;5245945;28;20043;-52
2021/11/04 10:40:04;;;;;;;8.90;1.00;;;22.70;54.20;;;;;;5254632;28;20066;-55
2021/11/04 10:42:50;;;;;;;7.68;1.25;;;22.80;54.30;;;;;;5245930;28;20681;-52
2021/11/04 10:45:28;;;;;;;5.13;0.90;;;22.80;54.40;;;;;;5251512;28;20043;-58
2021/11/04 10:48:18;;;;;;;4.63;0.75;;;22.80;54.40;;;;;;5244287;28;20044;-50
2021/11/04 10:50:51;;;;;;;11.30;0.77;;;22.80;54.50;;;;;;5252310;27;20048;-52
2021/11/04 10:53:25;;;;;;;3.25;0.70;;;22.80;54.60;;;;;;5235773;28;20054;-50
2021/11/04 10:56:22;;;;;;;4.68;0.70;;;22.80;54.60;;;;;;5233449;28;20040;-56
2021/11/04 10:58:59;;;;;;;3.47;0.80;;;22.80;54.80;;;;;;5254620;28;20048;-56
2021/11/04 11:01:37;;;;;;;9.95;0.90;;;22.80;54.60;;;;;;5240703;28;20526;-55
2021/11/04 11:04:15;;;;;;;8.68;0.82;;;22.80;54.60;;;;;;5243023;28;20569;-59
2021/11/04 11:06:53;;;;;;;5.15;0.80;;;22.80;54.70;;;;;;5244163;28;20500;-52
2021/11/04 11:09:27;;;;;;;5.97;0.80;;;22.80;54.70;;;;;;5240836;28;20039;-56
2021/11/04 11:12:05;;;;;;;3.38;0.85;;;22.80;54.80;;;;;;5225438;28;20495;-53
2021/11/04 11:14:40;;;;;;;6.28;0.80;;;22.80;54.90;;;;;;5250286;28;20239;-53
2021/11/04 11:17:12;;;;;;;2.22;0.63;;;22.80;54.80;;;;;;5227175;28;20056;-53
2021/11/04 11:19:45;;;;;;;1.45;0.60;;;22.80;54.80;;;;;;5237279;28;20036;-57
2021/11/04 11:22:19;;;;;;;6.03;1.02;;;22.80;54.80;;;;;;5231867;28;21225;-51
2021/11/04 11:24:51;;;;;;;3.10;0.93;;;22.80;54.70;;;;;;5230825;28;20051;-55
2021/11/04 11:27:25;;;;;;;4.38;0.82;;;22.80;54.50;;;;;;5239269;28;20048;-57
2021/11/04 11:29:57;;;;;;;;;;;22.80;54.40;;;;;;5223338;28;20044;-59
2021/11/04 11:32:32;;;;;;;7.05;0.63;;;22.80;54.40;;;;;;5230413;28;19934;-58
2021/11/04 11:35:20;;;;;;;4.68;0.55;;;22.80;54.30;;;;;;5193950;28;20653;-54
2021/11/04 11:37:58;;;;;;;4.40;0.70;;;22.80;54.30;;;;;;5228178;28;20547;-56
2021/11/04 11:40:32;;;;;;;3.65;0.50;;;22.80;54.20;;;;;;5226970;28;20414;-53
2021/11/04 11:43:12;;;;;;;2.65;0.60;;;22.80;54.10;;;;;;5240560;28;20047;-57
2021/11/04 11:46:01;;;;;;;4.82;0.57;;;22.80;54.20;;;;;;5239656;28;20048;-55
2021/11/04 11:48:33;;;;;;;3.80;0.63;;;22.80;54.00;;;;;;5239607;28;20040;-55
2021/11/04 11:51:06;;;;;;;2.92;0.70;;;22.80;54.00;;;;;;5240499;28;20686;-52
2021/11/04 11:53:49;;;;;;;5.05;1.23;;;22.80;54.60;;;;;;5236979;28;20043;-55
2021/11/04 11:56:23;;;;;;;4.68;0.70;;;22.80;53.90;;;;;;5224485;28;20047;-50
2021/11/04 11:59:22;;;;;;;3.25;0.65;;;22.80;54.20;;;;;;5230566;28;20515;-56
2021/11/04 12:01:54;;;;;;;2.83;0.50;;;22.80;53.80;;;;;;5234126;28;20419;-55
2021/11/04 12:04:34;;;;;;;1.23;0.50;;;22.80;53.80;;;;;;5235025;28;20059;-53
2021/11/04 12:07:28;;;;;;;3.47;0.70;;;22.80;53.80;;;;;;5244810;28;20040;-53
2021/11/04 12:10:00;;;;;;;4.22;0.63;;;22.80;53.70;;;;;;5237941;28;20044;-55
2021/11/04 12:12:44;;;;;;;8.82;1.05;;;22.80;53.70;;;;;;5202875;28;20043;-60
2021/11/04 12:15:16;;;;;;;;;;;22.80;53.70;;;;;;5239685;28;20043;-49
2021/11/04 12:18:17;;;;;;;5.22;0.73;;;22.70;53.60;;;;;;5234835;28;19920;-56
2021/11/04 12:20:55;;;;;;;3.00;0.70;;;22.80;53.60;;;;;;5238114;28;20054;-55
2021/11/04 12:23:47;;;;;;;4.13;0.55;;;22.70;53.60;;;;;;5238528;28;20040;-55
2021/11/04 12:26:27;;;;;;;3.05;1.02;;;22.80;53.60;;;;;;5235614;28;20048;-50
2021/11/04 12:29:05;;;;;;;1.50;0.50;;;22.70;53.50;;;;;;5235759;28;20060;-61
2021/11/04 12:31:41;;;;;;;4.18;1.02;;;22.70;53.60;;;;;;5236731;28;20063;-57
2021/11/04 12:34:20;;;;;;;2.22;0.50;;;22.70;53.60;;;;;;5245163;28;20437;-55
2021/11/04 12:36:56;;;;;;;1.55;0.52;;;22.70;53.60;;;;;;5229933;28;20048;-59
2021/11/04 12:39:30;;;;;;;2.65;0.60;;;22.70;53.60;;;;;;5235046;28;20055;-53
2021/11/04 12:42:04;;;;;;;3.58;0.75;;;22.70;53.60;;;;;;5237483;28;20523;-57
2021/11/04 12:44:37;;;;;;;1.65;0.50;;;22.70;53.60;;;;;;5234451;28;20036;-57
2021/11/04 12:47:09;;;;;;;2.65;0.75;;;22.70;53.70;;;;;;5239346;28;20477;-54
2021/11/04 12:49:42;;;;;;;2.20;0.63;;;22.70;53.60;;;;;;5238571;28;20039;-54
2021/11/04 12:52:15;;;;;;;1.40;0.60;;;22.70;53.60;;;;;;5233433;28;20047;-59
2021/11/04 12:54:51;;;;;;;3.05;0.60;;;22.70;53.60;;;;;;5234812;28;20052;-58
2021/11/04 12:57:27;;;;;;;2.30;0.70;;;22.70;53.60;;;;;;5241030;28;20055;-54
2021/11/04 13:00:03;;;;;;;2.50;0.60;;;22.70;53.60;;;;;;5225827;28;20047;-55
2021/11/04 13:02:37;;;;;;;4.82;1.20;;;22.60;53.60;;;;;;5237566;28;20043;-59
2021/11/04 13:05:21;;;;;;;1.13;0.40;;;22.70;53.60;;;;;;5235048;28;20045;-52
2021/11/04 13:07:56;;;;;;;1.58;0.98;;;22.70;53.60;;;;;;5236227;28;20398;-54
2021/11/04 13:10:32;;;;;;;1.52;0.55;;;22.80;53.50;;;;;;5219668;28;20393;-56
2021/11/04 13:13:05;;;;;;;1.77;0.47;;;22.70;53.40;;;;;;5231154;28;20427;-57
2021/11/04 13:15:40;;;;;;;2.20;0.52;;;22.70;53.40;;;;;;5239020;28;20086;-48
2021/11/04 13:18:13;;;;;;;1.13;0.40;;;22.70;53.50;;;;;;5237248;28;20044;-49
2021/11/04 13:20:49;;;;;;;0.87;0.60;;;22.70;53.50;;;;;;5236839;28;20044;-56
2021/11/04 13:23:25;;;;;;;0.95;0.50;;;22.70;53.60;;;;;;5235810;28;20051;-57
2021/11/04 13:25:59;;;;;;;1.10;0.50;;;22.70;53.60;;;;;;5248443;28;20051;-58
2021/11/04 13:28:37;;;;;;;0.93;0.40;;;22.70;53.60;;;;;;5251018;28;20051;-52